Time;durP1;ratioP1;P1;durP2;ratioP2;P2;SDS_P1;SDS_P2;PMS_P1;PMS_P2;Temp;Humidity;BMP_temperature;BMP_pressure;BME280_temperature;BME280_humidity;BME280_pressure;Samples;Min_cycle;Max_cycle;Signal;HPM_P1;HPM_P2
2021/06/02 00:00:05;;;;;;;6.38;3.95;;;19.00;47.00;;;;;;4966515;28;20096;-83
2021/06/02 00:02:32;;;;;;;4.70;4.20;;;18.90;46.80;;;;;;4968314;28;20038;-83
2021/06/02 00:05:01;;;;;;;4.78;3.72;;;18.90;46.90;;;;;;4968325;28;20042;-83
2021/06/02 00:07:27;;;;;;;4.28;3.88;;;18.90;47.00;;;;;;4967649;28;20031;-84
2021/06/02 00:09:54;;;;;;;4.40;3.80;;;18.90;47.10;;;;;;4969318;28;20037;-83
2021/06/02 00:12:21;;;;;;;4.78;3.95;;;18.80;47.00;;;;;;4967179;28;20113;-83
2021/06/02 00:14:47;;;;;;;4.68;4.05;;;18.80;47.00;;;;;;4967825;28;20031;-83
2021/06/02 00:17:16;;;;;;;5.45;3.75;;;18.70;46.90;;;;;;4967522;28;20035;-83
2021/06/02 00:19:42;;;;;;;4.00;3.70;;;18.70;47.00;;;;;;4967716;28;20027;-81
2021/06/02 00:22:08;;;;;;;4.22;3.67;;;18.70;47.10;;;;;;4967925;28;20039;-81
2021/06/02 00:24:35;;;;;;;5.13;4.35;;;18.70;47.10;;;;;;4967718;28;20027;-81
2021/06/02 00:27:05;;;;;;;4.50;4.10;;;18.60;47.00;;;;;;4967448;28;20039;-80
2021/06/02 00:29:36;;;;;;;4.35;4.03;;;18.60;47.10;;;;;;4967878;28;20039;-81
2021/06/02 00:32:04;;;;;;;6.88;4.15;;;18.60;47.80;;;;;;4967417;28;20027;-78
2021/06/02 00:34:30;;;;;;;5.18;4.68;;;18.60;47.20;;;;;;4966672;28;20445;-84
2021/06/02 00:36:59;;;;;;;6.85;4.30;;;18.50;47.10;;;;;;4967670;28;20039;-82
2021/06/02 00:39:26;;;;;;;5.03;4.50;;;18.50;47.20;;;;;;4967092;28;20491;-81
2021/06/02 00:41:53;;;;;;;4.75;4.35;;;18.40;47.00;;;;;;4968047;28;20478;-84
2021/06/02 00:44:20;;;;;;;4.78;4.30;;;18.40;47.10;;;;;;4966381;28;20049;-81
2021/06/02 00:46:47;;;;;;;4.88;4.38;;;18.40;47.20;;;;;;4969514;28;20082;-81
2021/06/02 00:49:24;;;;;;;4.32;3.90;;;18.40;47.90;;;;;;4971226;28;20542;-79
2021/06/02 00:51:56;;;;;;;4.90;4.50;;;18.40;47.40;;;;;;4970365;28;20027;-83
2021/06/02 00:54:24;;;;;;;5.35;4.65;;;18.30;47.30;;;;;;4969859;28;20394;-83
2021/06/02 00:57:04;;;;;;;4.78;4.38;;;18.30;47.30;;;;;;4971716;28;20035;-83
2021/06/02 00:59:37;;;;;;;4.15;3.83;;;18.30;47.50;;;;;;4969622;28;20027;-84
2021/06/02 01:02:03;;;;;;;4.95;4.45;;;18.30;47.40;;;;;;4970373;28;20027;-84
2021/06/02 01:04:29;;;;;;;4.53;4.13;;;18.20;47.20;;;;;;4971076;28;20463;-81
2021/06/02 01:06:56;;;;;;;4.88;4.47;;;18.20;47.30;;;;;;4969501;28;20122;-80
2021/06/02 01:09:23;;;;;;;5.72;4.47;;;18.20;48.00;;;;;;4953416;28;20125;-79
2021/06/02 01:11:51;;;;;;;7.60;4.80;;;18.10;47.30;;;;;;4953688;28;20030;-84
2021/06/02 01:14:20;;;;;;;4.88;4.40;;;18.00;47.10;;;;;;4953673;28;20031;-82
2021/06/02 01:16:47;;;;;;;4.70;4.30;;;18.00;47.20;;;;;;4953819;28;20054;-83
2021/06/02 01:19:19;;;;;;;5.50;4.78;;;18.00;47.20;;;;;;4953917;28;20425;-83
2021/06/02 01:21:54;;;;;;;5.32;4.82;;;18.00;47.40;;;;;;4953458;28;20030;-80
2021/06/02 01:24:21;;;;;;;6.78;4.40;;;17.90;47.30;;;;;;4961656;28;20023;-80
2021/06/02 01:26:52;;;;;;;5.88;4.20;;;17.90;47.30;;;;;;4950358;28;20035;-80
2021/06/02 01:29:18;;;;;;;5.50;4.63;;;17.90;47.50;;;;;;4949856;29;20154;-83
2021/06/02 01:31:51;;;;;;;5.50;4.80;;;17.80;47.30;;;;;;4959805;28;20031;-82
2021/06/02 01:34:25;;;;;;;5.63;5.15;;;17.80;47.40;;;;;;4954732;28;20169;-84
2021/06/02 01:37:03;;;;;;;5.32;4.82;;;17.80;47.50;;;;;;4954596;28;20364;-80
2021/06/02 01:39:46;;;;;;;7.38;5.10;;;17.70;47.30;;;;;;4970029;28;20023;-84
2021/06/02 01:42:46;;;;;;;4.70;4.30;;;17.70;47.30;;;;;;4938746;28;20027;-80
2021/06/02 01:45:27;;;;;;;5.88;5.28;;;17.70;47.40;;;;;;4932965;28;20034;-82
2021/06/02 01:48:27;;;;;;;4.85;4.40;;;17.70;47.30;;;;;;4972834;28;20528;-83
2021/06/02 01:51:16;;;;;;;5.00;4.60;;;17.70;47.50;;;;;;4957817;28;20114;-83
2021/06/02 01:54:00;;;;;;;4.93;4.40;;;17.60;47.30;;;;;;4975403;28;20042;-81
2021/06/02 01:56:54;;;;;;;4.70;4.30;;;17.60;47.40;;;;;;4975396;28;20023;-82
2021/06/02 01:59:41;;;;;;;5.30;4.60;;;17.60;47.50;;;;;;4973628;28;20034;-81
2021/06/02 02:02:44;;;;;;;5.63;5.13;;;17.50;47.30;;;;;;4974893;28;20030;-81
2021/06/02 02:05:39;;;;;;;5.70;5.13;;;17.50;47.30;;;;;;4958317;28;20145;-82
2021/06/02 02:08:11;;;;;;;5.53;4.90;;;17.50;47.30;;;;;;4965742;28;20081;-81
2021/06/02 02:11:26;;;;;;;5.32;4.82;;;17.50;47.30;;;;;;4974917;28;20035;-81
2021/06/02 02:14:30;;;;;;;8.55;5.00;;;17.40;47.30;;;;;;4974297;28;20402;-81
2021/06/02 02:17:27;;;;;;;5.57;5.05;;;17.40;47.30;;;;;;4975460;28;20069;-83
2021/06/02 02:19:59;;;;;;;5.57;5.10;;;17.40;47.40;;;;;;4974906;28;20097;-83
2021/06/02 02:22:40;;;;;;;6.05;4.57;;;17.30;47.10;;;;;;4974593;28;20027;-80
2021/06/02 02:25:14;;;;;;;6.68;5.40;;;17.30;47.20;;;;;;4957480;28;20027;-84
2021/06/02 02:27:45;;;;;;;;;;;17.30;47.40;;;;;;4975040;28;20043;-81
2021/06/02 02:30:42;;;;;;;5.65;5.15;;;17.30;47.20;;;;;;4974709;28;20192;-83
2021/06/02 02:33:35;;;;;;;5.20;4.70;;;17.20;47.20;;;;;;4974459;28;20324;-82
2021/06/02 02:36:15;;;;;;;6.40;5.75;;;17.20;47.20;;;;;;4974922;28;20034;-82
2021/06/02 02:39:00;;;;;;;5.53;4.80;;;17.20;47.20;;;;;;4974300;28;20042;-79
2021/06/02 02:41:49;;;;;;;5.63;5.15;;;17.20;47.40;;;;;;4974180;28;20031;-83
2021/06/02 02:44:33;;;;;;;5.45;4.93;;;17.10;47.30;;;;;;4973222;28;20031;-83
2021/06/02 02:47:17;;;;;;;6.15;5.65;;;17.10;47.40;;;;;;4973697;28;20058;-82
2021/06/02 02:50:04;;;;;;;5.97;5.45;;;17.10;47.40;;;;;;4972580;28;20038;-80
2021/06/02 02:53:07;;;;;;;6.20;5.18;;;17.10;47.50;;;;;;4974284;28;20027;-80
2021/06/02 02:55:35;;;;;;;6.18;5.57;;;17.10;47.60;;;;;;4973860;28;20027;-81
2021/06/02 02:58:17;;;;;;;6.35;5.75;;;17.00;47.30;;;;;;4972652;28;20031;-81
2021/06/02 03:00:56;;;;;;;6.13;5.45;;;17.00;47.50;;;;;;4974037;28;20043;-81
2021/06/02 03:03:31;;;;;;;5.55;5.05;;;17.00;47.50;;;;;;4972629;28;20085;-79
2021/06/02 03:06:21;;;;;;;6.65;6.00;;;17.00;47.60;;;;;;4973399;28;20042;-79
2021/06/02 03:09:05;;;;;;;5.78;5.20;;;17.00;47.60;;;;;;4973170;28;20031;-80
2021/06/02 03:11:44;;;;;;;5.95;5.35;;;16.90;47.50;;;;;;4972362;28;20035;-81
2021/06/02 03:14:25;;;;;;;5.88;5.38;;;16.90;47.50;;;;;;4973694;28;20410;-82
2021/06/02 03:17:01;;;;;;;6.65;6.05;;;16.90;47.60;;;;;;4972384;28;20034;-81
2021/06/02 03:20:06;;;;;;;6.82;6.20;;;16.90;47.70;;;;;;4972552;28;20058;-84
2021/06/02 03:22:42;;;;;;;6.35;5.75;;;16.90;47.70;;;;;;4972399;28;20110;-81
2021/06/02 03:25:43;;;;;;;6.22;5.63;;;16.80;47.50;;;;;;4973551;28;20495;-81
2021/06/02 03:28:18;;;;;;;7.13;5.75;;;16.80;47.60;;;;;;4971817;28;20039;-81
2021/06/02 03:31:14;;;;;;;6.55;5.95;;;16.80;47.60;;;;;;4974249;28;20084;-82
2021/06/02 03:33:58;;;;;;;6.35;5.80;;;16.80;47.70;;;;;;4940103;28;20494;-83
2021/06/02 03:37:01;;;;;;;6.60;6.00;;;16.70;47.60;;;;;;4973386;28;20038;-82
2021/06/02 03:39:41;;;;;;;7.32;6.05;;;16.70;47.60;;;;;;4966824;28;20544;-83
2021/06/02 03:42:37;;;;;;;7.10;6.45;;;16.70;47.60;;;;;;4971800;28;20030;-82
2021/06/02 03:45:30;;;;;;;6.50;5.90;;;16.70;47.70;;;;;;4972182;28;20030;-84
2021/06/02 03:48:13;;;;;;;7.30;6.60;;;16.60;47.50;;;;;;4955741;28;20101;-81
2021/06/02 03:51:02;;;;;;;6.88;6.18;;;16.60;47.60;;;;;;4971518;28;20757;-83
2021/06/02 03:53:42;;;;;;;6.18;5.65;;;16.60;47.70;;;;;;4973185;28;20066;-82
2021/06/02 03:56:40;;;;;;;6.72;5.70;;;16.50;47.50;;;;;;4971496;28;20037;-83
2021/06/02 03:59:35;;;;;;;7.28;6.10;;;16.60;47.80;;;;;;4973365;28;20027;-81
2021/06/02 04:02:46;;;;;;;7.82;5.97;;;16.50;47.60;;;;;;4962707;28;20298;-83
2021/06/02 04:05:12;;;;;;;7.18;6.47;;;16.50;47.70;;;;;;4967317;28;20039;-82
2021/06/02 04:08:21;;;;;;;7.40;6.45;;;16.50;47.60;;;;;;4955588;28;20418;-83
2021/06/02 04:10:56;;;;;;;7.57;6.18;;;16.50;47.80;;;;;;4972774;28;20401;-83
2021/06/02 04:14:00;;;;;;;6.57;5.95;;;16.40;47.60;;;;;;4973122;28;20039;-84
2021/06/02 04:16:32;;;;;;;6.37;5.70;;;16.40;47.60;;;;;;4971574;28;20041;-82
2021/06/02 04:19:05;;;;;;;6.85;6.22;;;16.40;47.60;;;;;;4971815;28;20042;-83
2021/06/02 04:21:33;;;;;;;7.60;6.85;;;16.40;47.70;;;;;;4972520;28;20514;-80
2021/06/02 04:24:03;;;;;;;7.30;6.68;;;16.40;47.70;;;;;;4971694;28;20035;-84
2021/06/02 04:26:33;;;;;;;7.47;6.53;;;16.40;47.80;;;;;;4971516;28;20041;-84
2021/06/02 04:29:00;;;;;;;7.68;6.50;;;16.40;47.90;;;;;;4973028;28;20050;-84
2021/06/02 04:31:28;;;;;;;7.90;6.60;;;16.30;47.80;;;;;;4972990;28;20027;-84
2021/06/02 04:34:00;;;;;;;6.30;5.70;;;16.30;47.80;;;;;;4972670;28;20056;-82
2021/06/02 04:36:27;;;;;;;6.60;6.00;;;16.30;47.90;;;;;;4972627;28;20524;-79
2021/06/02 04:38:55;;;;;;;7.30;6.53;;;16.30;48.10;;;;;;4972345;28;20064;-80
2021/06/02 04:41:23;;;;;;;9.02;6.25;;;16.30;48.00;;;;;;4972887;28;20117;-82
2021/06/02 04:43:50;;;;;;;6.55;6.05;;;16.30;48.00;;;;;;4972700;28;20486;-84
2021/06/02 04:46:19;;;;;;;7.68;6.68;;;16.30;48.00;;;;;;4972077;28;20061;-81
2021/06/02 04:48:47;;;;;;;8.95;6.53;;;16.30;48.00;;;;;;4966338;28;20043;-82
2021/06/02 04:51:32;;;;;;;7.03;6.25;;;16.30;48.10;;;;;;4968767;28;20473;-78
2021/06/02 04:54:08;;;;;;;12.10;6.70;;;16.30;48.20;;;;;;4968643;28;20498;-78
2021/06/02 04:56:55;;;;;;;6.75;6.05;;;16.30;48.20;;;;;;4968744;28;20399;-79
2021/06/02 04:59:33;;;;;;;7.00;6.30;;;16.30;48.20;;;;;;4967704;28;20039;-78
2021/06/02 05:02:16;;;;;;;7.63;6.90;;;16.30;48.00;;;;;;4968986;28;20109;-82
2021/06/02 05:05:10;;;;;;;7.50;6.65;;;16.40;48.30;;;;;;4962808;28;20035;-80
2021/06/02 05:08:03;;;;;;;7.15;6.43;;;16.40;48.30;;;;;;4949833;28;20038;-80
2021/06/02 05:10:38;;;;;;;7.32;6.63;;;16.40;48.30;;;;;;4966140;28;20031;-80
2021/06/02 05:13:07;;;;;;;8.65;6.18;;;16.50;48.30;;;;;;4967436;28;20465;-80
2021/06/02 05:16:19;;;;;;;6.68;6.07;;;16.40;48.20;;;;;;4950988;28;20229;-83
2021/06/02 05:22:46;;;;;;;7.57;6.85;;;16.60;48.60;;;;;;4951535;28;20059;-84
2021/06/02 05:25:36;;;;;;;6.88;6.00;;;16.60;48.40;;;;;;4894471;29;20571;-81
2021/06/02 05:28:39;;;;;;;7.22;6.45;;;16.70;48.50;;;;;;4910095;29;20506;-81
2021/06/02 05:31:39;;;;;;;7.13;6.32;;;16.70;48.50;;;;;;4942325;29;20043;-77
2021/06/02 05:34:27;;;;;;;6.38;5.78;;;16.80;48.70;;;;;;4965865;28;20039;-79
2021/06/02 05:37:03;;;;;;;7.13;6.43;;;16.80;48.60;;;;;;4970709;28;20035;-77
2021/06/02 05:39:54;;;;;;;7.20;5.97;;;16.90;48.80;;;;;;4952633;28;20066;-80
2021/06/02 05:42:25;;;;;;;7.70;6.70;;;16.90;48.90;;;;;;4969547;28;20041;-81
2021/06/02 05:45:39;;;;;;;9.63;7.60;;;17.00;49.00;;;;;;4969009;28;20034;-80
2021/06/02 05:48:16;;;;;;;9.77;7.90;;;17.00;49.40;;;;;;4947912;29;20055;-80
2021/06/02 05:51:03;;;;;;;10.23;8.18;;;17.10;50.10;;;;;;4949914;29;20047;-80
2021/06/02 05:53:50;;;;;;;9.75;8.43;;;17.20;50.70;;;;;;4945686;28;20038;-82
2021/06/02 05:57:00;;;;;;;11.52;9.10;;;17.30;51.10;;;;;;4953669;28;20085;-79
2021/06/02 05:59:49;;;;;;;11.50;8.18;;;17.40;51.50;;;;;;4954061;28;20097;-80
2021/06/02 06:02:52;;;;;;;10.68;7.93;;;17.50;51.70;;;;;;4953939;28;20037;-78
2021/06/02 06:06:13;;;;;;;13.35;7.85;;;17.70;52.50;;;;;;4970461;28;20042;-79
2021/06/02 06:09:16;;;;;;;14.02;9.30;;;17.80;52.60;;;;;;4897317;29;20039;-80
2021/06/02 06:11:58;;;;;;;12.07;7.50;;;18.00;53.00;;;;;;4952590;28;20430;-79
2021/06/02 06:15:11;;;;;;;8.40;7.68;;;18.10;53.00;;;;;;4968335;28;20042;-81
2021/06/02 06:17:43;;;;;;;12.60;8.05;;;18.30;53.40;;;;;;4952104;28;20031;-80
2021/06/02 06:20:12;;;;;;;16.50;8.75;;;18.40;53.30;;;;;;4952562;28;20026;-80
2021/06/02 06:23:16;;;;;;;11.50;8.07;;;18.60;54.30;;;;;;4968444;28;20073;-81
2021/06/02 06:25:45;;;;;;;12.87;8.60;;;18.80;54.40;;;;;;4970145;28;20118;-80
2021/06/02 06:28:31;;;;;;;9.15;7.80;;;18.90;54.20;;;;;;4968596;28;20524;-83
2021/06/02 06:31:10;;;;;;;9.77;7.90;;;19.20;55.30;;;;;;4962832;28;20039;-82
2021/06/02 06:33:39;;;;;;;8.95;7.80;;;19.50;55.90;;;;;;4961081;28;20121;-83
2021/06/02 06:36:06;;;;;;;10.48;8.10;;;19.80;56.50;;;;;;4952560;28;20031;-83
2021/06/02 06:38:50;;;;;;;7.85;7.05;;;20.20;57.40;;;;;;4968777;28;20425;-82
2021/06/02 06:41:18;;;;;;;10.23;7.50;;;20.60;58.60;;;;;;4951934;28;20038;-83
2021/06/02 06:43:46;;;;;;;8.25;7.55;;;21.00;58.90;;;;;;4952213;28;20033;-83
2021/06/02 06:46:16;;;;;;;7.05;6.35;;;21.40;59.70;;;;;;4951894;28;20057;-81
2021/06/02 06:48:49;;;;;;;7.13;6.45;;;21.80;60.40;;;;;;4968470;28;20077;-85
2021/06/02 06:51:18;;;;;;;;;;;22.10;60.70;;;;;;4968684;28;20031;-83
2021/06/02 06:53:45;;;;;;;7.18;6.22;;;22.50;60.30;;;;;;4968343;28;19941;-82
2021/06/02 06:56:12;;;;;;;6.57;5.85;;;22.90;60.80;;;;;;4968567;28;20030;-82
2021/06/02 06:58:40;;;;;;;5.78;5.18;;;23.20;61.20;;;;;;4952074;28;20418;-82
2021/06/02 07:01:08;;;;;;;5.63;4.95;;;23.50;61.40;;;;;;4952095;28;20070;-82
2021/06/02 07:03:35;;;;;;;7.75;5.57;;;23.80;61.60;;;;;;4951645;28;20035;-82
2021/06/02 07:06:05;;;;;;;4.82;4.40;;;24.20;61.90;;;;;;4936496;28;20039;-81
2021/06/02 07:08:41;;;;;;;5.53;4.38;;;24.60;62.20;;;;;;4967386;28;20498;-83
2021/06/02 07:11:07;;;;;;;8.38;4.80;;;25.00;62.30;;;;;;4951677;28;20027;-82
2021/06/02 07:13:34;;;;;;;5.30;4.80;;;25.40;62.00;;;;;;4951568;28;20031;-84
2021/06/02 07:16:02;;;;;;;6.32;5.03;;;25.90;61.90;;;;;;4968349;28;20134;-83
2021/06/02 07:18:31;;;;;;;5.07;4.53;;;26.20;61.50;;;;;;4967177;28;20027;-83
2021/06/02 07:21:00;;;;;;;5.22;4.72;;;26.60;61.20;;;;;;4968105;28;20091;-82
2021/06/02 07:23:27;;;;;;;4.60;4.20;;;27.00;60.90;;;;;;4967430;28;20023;-82
2021/06/02 07:25:53;;;;;;;5.30;4.65;;;27.40;60.60;;;;;;4968811;28;20035;-81
2021/06/02 07:28:46;;;;;;;5.10;4.18;;;27.80;60.40;;;;;;4967403;28;21003;-82
2021/06/02 07:31:12;;;;;;;4.57;4.18;;;28.10;60.10;;;;;;4966485;28;20062;-82
2021/06/02 07:33:38;;;;;;;6.07;4.00;;;28.40;59.70;;;;;;4968389;28;20096;-84
2021/06/02 07:36:08;;;;;;;4.30;3.90;;;28.70;59.40;;;;;;4950853;28;20034;-84
2021/06/02 07:38:35;;;;;;;4.13;3.70;;;28.90;59.10;;;;;;4967796;28;20031;-84
2021/06/02 07:41:01;;;;;;;3.92;3.60;;;29.20;58.90;;;;;;4951265;28;20371;-81
2021/06/02 07:43:28;;;;;;;5.88;3.40;;;29.30;58.60;;;;;;4950226;28;20031;-80
2021/06/02 07:45:54;;;;;;;4.43;4.03;;;29.50;58.40;;;;;;4967138;28;20030;-82
2021/06/02 07:48:20;;;;;;;3.95;3.30;;;29.70;58.20;;;;;;4966526;28;20165;-82
2021/06/02 07:50:46;;;;;;;4.03;3.38;;;29.90;57.90;;;;;;4966625;28;20023;-82
2021/06/02 07:53:12;;;;;;;5.18;3.65;;;30.30;57.70;;;;;;4950888;28;20284;-83
2021/06/02 07:55:38;;;;;;;4.25;3.75;;;30.60;57.20;;;;;;4918220;28;20041;-82
2021/06/02 07:58:04;;;;;;;4.32;3.08;;;30.90;56.80;;;;;;4966112;28;20027;-81
2021/06/02 08:00:31;;;;;;;3.83;3.13;;;31.20;56.30;;;;;;4966418;28;20061;-80
2021/06/02 08:02:57;;;;;;;4.10;3.72;;;31.40;55.90;;;;;;4966533;28;20038;-80
2021/06/02 08:05:24;;;;;;;4.00;3.60;;;31.40;55.60;;;;;;4966438;28;20034;-82
2021/06/02 08:07:50;;;;;;;3.85;3.45;;;31.40;55.40;;;;;;4950159;28;20113;-82
2021/06/02 08:10:19;;;;;;;3.03;2.83;;;31.30;55.40;;;;;;4934653;28;20039;-82
2021/06/02 08:12:47;;;;;;;3.75;3.42;;;31.10;55.40;;;;;;4950770;28;20046;-84
2021/06/02 08:15:14;;;;;;;4.05;3.65;;;31.30;55.30;;;;;;4951065;28;20023;-86
2021/06/02 08:18:05;;;;;;;5.18;3.28;;;31.70;54.80;;;;;;4956327;28;20061;-84
2021/06/02 08:20:31;;;;;;;5.18;3.10;;;32.20;54.10;;;;;;4950613;28;20046;-83
2021/06/02 08:22:57;;;;;;;4.40;3.05;;;32.60;53.30;;;;;;4957818;28;20031;-83
2021/06/02 08:25:23;;;;;;;3.70;2.92;;;33.00;52.50;;;;;;4966873;28;20166;-84
2021/06/02 08:28:05;;;;;;;3.20;2.70;;;33.40;51.70;;;;;;4947977;28;20040;-83
2021/06/02 08:30:32;;;;;;;3.58;2.80;;;33.80;51.10;;;;;;4943990;28;20049;-83
2021/06/02 08:33:00;;;;;;;2.78;2.58;;;34.20;50.50;;;;;;4954540;28;20166;-82
2021/06/02 08:35:27;;;;;;;3.00;2.80;;;34.40;50.00;;;;;;4950939;28;20023;-85
2021/06/02 08:38:31;;;;;;;3.17;2.88;;;34.70;49.60;;;;;;4965578;28;20033;-85
2021/06/02 08:40:58;;;;;;;3.53;2.70;;;35.00;49.20;;;;;;4950486;28;20089;-83
2021/06/02 08:43:24;;;;;;;2.83;2.55;;;35.20;48.80;;;;;;4933920;28;20529;-82
2021/06/02 08:45:59;;;;;;;3.42;3.13;;;35.30;48.40;;;;;;4966006;28;20031;-84
2021/06/02 08:48:33;;;;;;;3.17;2.85;;;35.50;48.00;;;;;;4950511;28;20070;-83
2021/06/02 08:51:03;;;;;;;2.75;2.50;;;35.70;47.70;;;;;;4919621;28;20071;-87
2021/06/02 08:53:46;;;;;;;3.70;2.80;;;35.70;47.50;;;;;;4951237;28;20494;-86
2021/06/02 08:56:15;;;;;;;3.63;2.72;;;35.50;47.80;;;;;;4963866;28;20049;-83
2021/06/02 08:58:51;;;;;;;4.03;2.60;;;35.00;48.40;;;;;;4975207;28;20054;-84
2021/06/02 09:05:02;;;;;;;3.65;2.97;;;33.90;50.00;;;;;;4959586;28;20046;-83
2021/06/02 09:07:29;;;;;;;3.15;2.63;;;33.40;51.10;;;;;;4943614;28;20376;-84
2021/06/02 09:10:00;;;;;;;3.00;2.70;;;33.10;51.60;;;;;;4952254;28;20030;-83
2021/06/02 09:13:01;;;;;;;2.85;2.50;;;33.00;52.00;;;;;;4971116;28;20035;-87
2021/06/02 09:15:36;;;;;;;2.70;2.50;;;32.90;52.40;;;;;;4971788;28;20031;-86
2021/06/02 09:19:41;;;;;;;3.13;2.83;;;32.80;52.50;;;;;;4959523;28;20035;-87
2021/06/02 09:24:00;;;;;;;3.05;2.78;;;32.70;52.90;;;;;;4970839;28;20051;-85
2021/06/02 09:27:12;;;;;;;2.80;2.60;;;32.50;52.80;;;;;;4972058;28;20391;-86
2021/06/02 09:30:02;;;;;;;3.28;2.65;;;32.40;53.10;;;;;;4975622;28;20050;-85
2021/06/02 09:32:28;;;;;;;3.60;3.00;;;32.40;53.30;;;;;;4969611;28;20131;-85
2021/06/02 09:35:00;;;;;;;2.83;2.60;;;32.40;53.50;;;;;;4953312;28;20080;-83
2021/06/02 09:37:27;;;;;;;2.70;2.47;;;32.30;53.70;;;;;;4969927;28;20031;-81
2021/06/02 09:39:53;;;;;;;2.70;2.50;;;32.20;53.90;;;;;;4953295;28;20508;-81
2021/06/02 09:42:45;;;;;;;3.47;2.58;;;32.10;54.00;;;;;;4951950;28;20035;-83
2021/06/02 09:45:29;;;;;;;3.20;2.58;;;32.10;54.20;;;;;;4967603;28;20035;-82
2021/06/02 09:48:00;;;;;;;4.38;3.00;;;32.00;54.50;;;;;;4953770;28;20055;-84
2021/06/02 09:50:29;;;;;;;3.38;3.03;;;31.90;54.70;;;;;;4953721;28;20038;-82
2021/06/02 09:52:57;;;;;;;4.85;3.47;;;31.90;55.10;;;;;;4953100;28;20482;-84
2021/06/02 09:55:31;;;;;;;5.38;3.53;;;31.80;53.20;;;;;;4969160;28;20040;-84
2021/06/02 09:58:06;;;;;;;4.22;3.10;;;31.70;52.60;;;;;;4970580;28;20118;-85
2021/06/02 10:00:58;;;;;;;4.05;2.80;;;31.70;52.50;;;;;;4969230;28;20042;-83
2021/06/02 10:03:27;;;;;;;3.97;2.83;;;31.70;52.70;;;;;;4949564;28;20129;-85
2021/06/02 10:05:54;;;;;;;4.18;3.30;;;31.80;52.60;;;;;;4970915;28;20038;-85
2021/06/02 10:08:31;;;;;;;3.72;3.28;;;31.80;52.70;;;;;;4953474;28;20046;-84
2021/06/02 10:11:18;;;;;;;4.53;2.90;;;31.80;53.10;;;;;;4969174;28;20035;-85
2021/06/02 10:13:49;;;;;;;3.47;3.10;;;31.80;53.00;;;;;;4969320;28;20069;-85
2021/06/02 10:16:32;;;;;;;3.47;3.17;;;31.90;53.30;;;;;;4969276;28;20034;-85
2021/06/02 10:18:59;;;;;;;3.10;2.80;;;31.80;53.30;;;;;;4968265;28;20125;-84
2021/06/02 10:22:03;;;;;;;3.05;2.65;;;31.80;53.50;;;;;;4965751;28;20038;-84
2021/06/02 10:24:54;;;;;;;5.00;3.35;;;31.90;53.80;;;;;;4953662;28;20130;-83
2021/06/02 10:27:21;;;;;;;4.03;2.72;;;32.00;54.10;;;;;;4952964;28;20443;-82
2021/06/02 10:29:57;;;;;;;3.08;2.80;;;32.00;54.30;;;;;;4973793;28;20509;-82
2021/06/02 10:32:26;;;;;;;2.80;2.60;;;32.00;54.50;;;;;;4970273;28;20367;-82
2021/06/02 10:34:54;;;;;;;6.55;2.80;;;32.00;54.60;;;;;;4952186;28;20374;-83
2021/06/02 10:37:26;;;;;;;3.95;3.00;;;32.10;54.70;;;;;;4962292;28;20391;-83
2021/06/02 10:39:58;;;;;;;3.22;2.75;;;32.20;54.60;;;;;;4968223;28;20041;-82
2021/06/02 10:42:46;;;;;;;3.00;2.65;;;32.30;54.90;;;;;;4968881;28;20536;-83
2021/06/02 10:45:18;;;;;;;3.40;3.08;;;32.30;54.90;;;;;;4969481;28;20031;-86
2021/06/02 10:48:01;;;;;;;3.45;2.85;;;32.40;54.90;;;;;;4970492;28;20043;-85
2021/06/02 10:50:41;;;;;;;3.28;2.90;;;32.50;54.90;;;;;;4952984;28;20035;-85
2021/06/02 10:53:23;;;;;;;3.38;3.08;;;32.50;55.00;;;;;;4952499;28;20061;-85
2021/06/02 10:55:54;;;;;;;3.97;2.72;;;32.60;55.10;;;;;;4968694;28;20038;-86
2021/06/02 10:58:34;;;;;;;3.05;2.80;;;32.60;55.10;;;;;;4936547;28;20042;-85
2021/06/02 11:01:06;;;;;;;3.65;2.60;;;32.70;55.30;;;;;;4952058;28;20405;-84
2021/06/02 11:03:34;;;;;;;3.17;2.87;;;32.70;55.50;;;;;;4968200;28;20327;-85
2021/06/02 11:06:06;;;;;;;4.40;2.92;;;32.70;55.30;;;;;;4952729;28;20751;-86
2021/06/02 11:08:50;;;;;;;4.63;2.60;;;32.70;55.50;;;;;;4952109;28;20062;-84
2021/06/02 11:11:31;;;;;;;4.03;3.67;;;32.70;55.70;;;;;;4969669;28;20026;-88
2021/06/02 11:14:16;;;;;;;3.83;3.20;;;32.80;55.80;;;;;;4952574;28;20031;-86
2021/06/02 11:16:45;;;;;;;4.90;3.30;;;32.90;55.70;;;;;;4953402;28;20094;-86
2021/06/02 11:19:11;;;;;;;3.80;2.83;;;32.90;55.70;;;;;;4953978;28;20035;-86
2021/06/02 11:21:54;;;;;;;4.63;3.70;;;33.00;55.80;;;;;;4969025;28;20418;-87
2021/06/02 11:27:13;;;;;;;7.43;5.70;;;33.10;55.90;;;;;;4969504;28;20471;-84
2021/06/02 11:29:50;;;;;;;11.77;9.90;;;33.10;53.50;;;;;;4973563;28;20049;-84
2021/06/02 11:32:24;;;;;;;8.13;6.60;;;32.90;52.80;;;;;;4987806;28;20034;-88
2021/06/02 11:35:03;;;;;;;8.50;5.65;;;32.70;53.10;;;;;;4951020;28;20042;-83
2021/06/02 11:37:31;;;;;;;8.32;5.35;;;32.50;53.20;;;;;;4952498;28;20034;-85
2021/06/02 11:39:59;;;;;;;6.78;4.82;;;32.40;53.50;;;;;;4951785;28;20402;-85
2021/06/02 11:42:29;;;;;;;7.18;5.20;;;32.40;53.70;;;;;;4951690;28;20092;-85
2021/06/02 11:44:59;;;;;;;5.63;5.07;;;32.20;53.90;;;;;;4968970;28;20076;-84
2021/06/02 11:47:26;;;;;;;5.95;4.78;;;32.10;54.30;;;;;;4967575;28;20528;-85
2021/06/02 11:50:01;;;;;;;5.10;4.18;;;32.00;54.70;;;;;;4966201;28;20439;-88
2021/06/02 11:52:27;;;;;;;6.30;4.30;;;31.90;55.00;;;;;;4951405;28;20117;-86
2021/06/02 11:54:53;;;;;;;6.60;4.38;;;31.80;55.10;;;;;;4968800;28;20166;-88
2021/06/02 11:57:22;;;;;;;4.45;3.83;;;31.80;55.40;;;;;;4968542;28;20117;-87
2021/06/02 11:59:49;;;;;;;4.32;3.92;;;31.70;55.50;;;;;;4969639;28;20058;-90
2021/06/02 12:02:16;;;;;;;5.82;3.90;;;31.50;55.30;;;;;;4969446;28;20410;-88
2021/06/02 12:04:42;;;;;;;4.28;3.45;;;31.50;55.40;;;;;;4975320;28;20043;-87
2021/06/02 12:07:28;;;;;;;4.05;3.70;;;31.30;55.50;;;;;;4968843;28;20129;-85
2021/06/02 12:09:56;;;;;;;3.92;3.45;;;31.20;55.60;;;;;;4948240;28;20039;-82
2021/06/02 12:12:23;;;;;;;5.95;3.40;;;31.10;56.30;;;;;;4950835;28;20391;-88
2021/06/02 12:14:57;;;;;;;4.40;3.92;;;31.00;56.50;;;;;;4968775;28;20030;-88
2021/06/02 12:17:29;;;;;;;4.47;4.05;;;30.80;56.70;;;;;;4969545;28;20611;-88
2021/06/02 12:19:56;;;;;;;6.40;3.65;;;30.70;56.90;;;;;;4967950;28;20026;-82
2021/06/02 12:22:23;;;;;;;4.45;4.05;;;30.50;56.90;;;;;;4967075;28;20069;-83
2021/06/02 12:25:09;;;;;;;3.95;3.55;;;30.40;57.00;;;;;;4966316;28;20038;-80
2021/06/02 12:27:43;;;;;;;4.43;3.05;;;30.20;57.30;;;;;;4967518;28;20034;-80
2021/06/02 12:30:19;;;;;;;3.45;3.08;;;30.00;57.50;;;;;;4959153;28;20038;-80
2021/06/02 12:33:00;;;;;;;4.35;3.72;;;29.90;57.90;;;;;;4981097;28;20424;-81
2021/06/02 12:35:39;;;;;;;4.45;3.63;;;29.70;58.10;;;;;;4967544;28;20039;-80
2021/06/02 12:38:13;;;;;;;4.20;3.63;;;29.60;58.50;;;;;;4967577;28;20038;-81
2021/06/02 12:40:51;;;;;;;5.20;3.88;;;29.40;58.60;;;;;;4967576;28;20034;-82
2021/06/02 12:43:20;;;;;;;4.40;4.00;;;29.40;59.10;;;;;;4970919;28;20662;-82
2021/06/02 12:45:48;;;;;;;3.90;3.60;;;29.20;59.20;;;;;;4954654;28;20023;-79
2021/06/02 12:48:33;;;;;;;4.43;4.03;;;29.20;59.50;;;;;;4971086;28;20195;-82
2021/06/02 12:51:00;;;;;;;4.95;3.60;;;29.10;59.70;;;;;;4970749;28;20038;-83
2021/06/02 12:53:41;;;;;;;5.68;3.88;;;29.10;59.80;;;;;;4972180;28;20391;-83
2021/06/02 12:56:09;;;;;;;4.45;3.60;;;29.00;60.00;;;;;;4971583;28;20410;-81
2021/06/02 12:58:36;;;;;;;4.07;3.42;;;29.00;60.10;;;;;;4954139;28;20487;-82
2021/06/02 13:01:04;;;;;;;4.85;3.78;;;29.00;60.30;;;;;;4971516;28;20410;-83
2021/06/02 13:03:31;;;;;;;4.50;4.10;;;29.00;60.50;;;;;;4972065;28;20117;-80
2021/06/02 13:05:57;;;;;;;5.68;3.90;;;28.90;60.50;;;;;;4971239;28;20079;-81
2021/06/02 13:08:23;;;;;;;4.50;4.10;;;29.00;60.70;;;;;;4970773;28;20462;-83
2021/06/02 13:10:50;;;;;;;3.53;3.22;;;28.90;60.70;;;;;;4971384;28;20095;-83
2021/06/02 13:13:16;;;;;;;4.60;4.15;;;28.90;60.80;;;;;;4969643;28;20026;-84
2021/06/02 13:15:53;;;;;;;4.72;3.85;;;28.90;60.90;;;;;;4954094;28;20038;-82
2021/06/02 13:18:21;;;;;;;4.05;3.65;;;28.80;60.90;;;;;;4970939;28;20664;-80
2021/06/02 13:20:48;;;;;;;5.43;3.78;;;28.80;61.10;;;;;;4970920;28;20035;-81
2021/06/02 13:23:28;;;;;;;4.15;3.78;;;28.70;61.20;;;;;;4965416;28;20046;-79
2021/06/02 13:26:15;;;;;;;4.35;3.42;;;28.70;61.40;;;;;;4963216;28;20038;-80
2021/06/02 13:28:53;;;;;;;4.32;3.92;;;28.60;61.40;;;;;;4970820;28;20081;-81
2021/06/02 13:31:34;;;;;;;4.47;3.67;;;28.50;61.60;;;;;;4988848;28;20865;-81
2021/06/02 13:34:00;;;;;;;4.05;3.72;;;28.50;61.60;;;;;;4974954;28;20037;-79
2021/06/02 13:36:28;;;;;;;4.80;4.03;;;28.40;61.70;;;;;;4971129;28;20117;-81
2021/06/02 13:39:10;;;;;;;3.88;3.58;;;28.40;62.00;;;;;;4970581;28;20031;-80
2021/06/02 13:41:37;;;;;;;4.18;3.78;;;28.30;62.10;;;;;;4953271;28;20034;-83
2021/06/02 13:44:03;;;;;;;4.28;3.97;;;28.20;62.20;;;;;;4970540;28;20482;-80
2021/06/02 13:46:30;;;;;;;3.97;3.65;;;28.10;62.30;;;;;;4970452;28;20038;-81
2021/06/02 13:48:57;;;;;;;6.82;3.70;;;28.00;62.50;;;;;;4969850;28;20101;-81